Historyczne dane pomiarowe

Dodano dane terminowe – wersja testowa.

Dane z okresu 1951-2019

Wersja bazy: 1.34 [2019-03-16, lista zmian], aktualizacja planowana na 2019-04-15

Dane meteo z obszaru Polski uzyskane na podstawie danych udostępnionych przez Instytut Meteorologii i Gospodarki Wodnej – Państwowy Instytut Badawczy.

 

Wybierz Datę:    

       

TemperaturaWilgotnośćWiatrCiśnienieOpadyŚniegCzas trwania zjawisk
 Stacja t tx tn tng RH VA  wxwx mslp ppp RRR   cm mm wxwxwxwxwxwxwx
1956-11-09 -3.2 0.1 -5.5 -6.8 70.8- 4.0 3.0---- 0.0-- 4---------
1956-11-08 -2.0 -0.9 -3.2 -5.4 91.5- 6.0 1.7---- 0.0-- 4---------
1956-11-07 0.3 4.6 -1.5 -2.2 78.5- 5.0 5.7---- 3.9------------
1956-11-06 2.3 3.6 0.1 -1.9 68.8- 4.7 6.7---- 2.0------------
1956-11-05 3.7 7.6 1.1 0.5 81.5- 5.7 5.7---- 2.1------------
1956-11-04 1.7 3.5 -0.8 -5.2 77.3- 5.0 3.7---- 0.0------------
1956-11-03 0.8 3.3 -0.3 -1.1 95.5- 4.7 0.7---- 1.2------------
1956-11-02 2.2 5.6 -0.2 -4.8 86.5- 6.0 1.7---- 5.0------------
1956-11-01 1.9 2.6 -2.5 -4.0 92.8- 8.0 3.3---- 11.2------------
1956-10-31 -2.6 0.2 -8.5-13.0 70.8- 4.3 2.7---- 0.0------------
1956-10-30 -3.4 -0.7 -5.1 -4.0 79.8- 5.0 5.0---- 0.3------------
1956-10-29 -0.5 5.1 -1.5 0.2 96.0- 8.0 8.7---- 2.8------------
1956-10-28 5.9 7.5 4.6 6.1 93.0- 8.0 8.7---- 3.5------------
1956-10-27 7.5 7.7 6.5 4.3 88.5- 8.0 8.3---- 7.9------------
1956-10-26 7.3 11.1 6.8 3.5 91.8- 7.3 0.3---- 0.6------------
1956-10-25 11.6 14.6 10.2 9.2 86.8- 6.3 3.7---- 0.0------------
1956-10-24 11.5 13.6 9.0 8.0 92.0- 8.0 2.7---- 0.0------------
1956-10-23 10.1 11.6 9.0 9.2 81.8- 7.7 3.7---- 0.0------------
1956-10-22 12.0 14.5 10.9 9.8 79.5- 6.7 4.3---- 0.0------------
1956-10-21 11.3 13.6 6.5 2.5 92.3- 7.7 3.0---- 0.0------------
1956-10-20 8.5 9.9 5.8 1.5 97.3- 6.0 1.7---- 4.0------------
1956-10-19 9.8 12.2 4.3 10.6 89.3- 6.7 3.0---- 0.1------------
1956-10-18 10.7 12.7 6.2 5.1 92.0- 7.7 2.0---- 2.4------------
1956-10-17 7.8 12.6 2.5 -3.2 82.8- 1.7 3.0---- 0.0------------
1956-10-16 6.2 11.1 0.8 -3.1 90.8- 5.7 0.7---- 0.0------------
1956-10-15 6.2 10.8 3.5 -1.2 86.3- 2.7 4.0---- 0.0------------
1956-10-14 7.8 10.4 6.2 4.6 75.0- 2.7 7.0---- 0.0------------
1956-10-13 10.0 11.5 9.3 7.9 83.0- 7.3 7.0---- 24.9------------
1956-10-12 10.3 12.5 9.7 8.0 85.0- 7.0 4.0---- 0.0------------
1956-10-11 9.4 12.3 6.2 4.2 89.8- 6.0 3.0---- 0.0------------
1956-10-10 6.6 10.5 0.3 -3.4 75.5- 5.7 3.7---- 0.0------------
1956-10-09 5.8 9.9 3.8 1.4 89.3- 4.3 2.7---- 5.6------------
1956-10-08 6.4 9.7 4.6 2.5 79.0- 6.3 3.0---- 0.2------------
1956-10-07 8.0 9.9 6.7 5.9 82.8- 7.7 7.7---- 7.6------------
1956-10-06 7.3 8.5 4.1 -0.9 89.8- 7.7 0.7---- 13.4------------
1956-10-05 7.5 10.8 5.9 3.5 94.8- 5.3 2.3---- 5.0------------
1956-10-04 9.9 14.1 6.0 1.8 91.3- 6.0 3.3---- 0.9------------
1956-10-03 12.1 15.7 9.5 9.7 90.5- 4.7 2.7---- 0.4------------
1956-10-02 15.7 22.8 10.7 4.8 87.3- 5.0 3.7---- 24.3------------
1956-10-01 12.5 18.2 8.4 3.5 96.0- 3.3 1.7---- 9.6------------
1956-09-30 12.5 18.1 9.6 6.2 83.5- 2.7 3.0---- 0.0------------
1956-09-29 14.2 18.3 12.2 11.5 77.8- 2.0 5.3---- 0.2------------
1956-09-28 15.6 18.0 13.2 8.3 82.5- 7.7 4.3---- 0.2------------
1956-09-27 16.6 21.4 12.6 9.0 71.0- 2.7 4.3---- 0.2------------
1956-09-26 16.6 22.2 11.3 6.3 66.0- 0.0 3.3---- 0.0------------
1956-09-25 12.4 18.1 5.3 1.7 60.8- 0.3 3.0---- 0.0------------
1956-09-24 10.0 14.9 5.7 2.0 58.8- 1.0 3.3---- 0.0------------
1956-09-23 10.5 15.1 6.9 4.2 64.5- 4.0 5.0---- 0.0------------
1956-09-22 12.9 17.6 7.3 2.8 79.3- 3.0 2.3---- 0.0------------
1956-09-21 11.3 17.3 3.5 -0.1 80.3- 1.3 1.3---- 0.0------------
1956-09-20 11.0 16.0 8.2 3.6 79.0- 4.0 1.0---- 0.0------------
1956-09-19 10.1 15.4 3.9 0.2 79.3- 2.0 1.0---- 0.0------------
1956-09-18 9.9 13.7 6.8 2.5 86.8- 3.7 2.3---- 0.0------------
1956-09-17 9.8 13.4 6.1 1.8 78.0- 5.0 6.0---- 15.1------------
1956-09-16 10.2 14.6 5.4 0.4 85.3- 6.0 5.3---- 3.9------------
1956-09-15 9.9 15.1 6.7 5.0 84.5- 3.0 3.0---- 0.0------------
1956-09-14 9.8 15.6 5.0 0.6 87.3- 5.0 1.0---- 0.8------------
1956-09-13 8.7 13.6 6.7 2.4 90.8- 3.7 2.7---- 2.0------------
1956-09-12 11.7 15.7 9.2 9.1 81.8- 5.3 3.7---- 7.2------------
1956-09-11 13.8 18.6 11.6 11.0 87.0- 5.7 1.0---- 10.8------------
272.8 ms

 

Źródłem pochodzenia danych jest Instytut Meteorologii i Gospodarki Wodnej – Państwowy Instytut Badawczy. Dane Instytutu Meteorologii i Gospodarki Wodnej – Państwowego Instytutu Badawczego zostały przetworzone.

Dane źródłowe można odnaleźć na stronie https://dane.imgw.pl